sensor_id;sensor_type;location;lat;lon;timestamp;P1;durP1;ratioP1;P2;durP2;ratioP2
59824;SDS011;45703;50.898;6.054;2023-04-03T00:01:01;9.77;;;3.90;;
59824;SDS011;45703;50.898;6.054;2023-04-03T00:03:26;6.97;;;3.67;;
59824;SDS011;45703;50.898;6.054;2023-04-03T00:05:52;6.97;;;3.50;;
59824;SDS011;45703;50.898;6.054;2023-04-03T00:08:17;8.15;;;3.72;;
59824;SDS011;45703;50.898;6.054;2023-04-03T00:10:43;8.57;;;3.95;;
59824;SDS011;45703;50.898;6.054;2023-04-03T00:13:08;7.60;;;4.13;;
59824;SDS011;45703;50.898;6.054;2023-04-03T00:15:35;8.23;;;3.83;;
59824;SDS011;45703;50.898;6.054;2023-04-03T00:18:01;7.50;;;3.70;;
59824;SDS011;45703;50.898;6.054;2023-04-03T00:20:27;7.20;;;3.50;;
59824;SDS011;45703;50.898;6.054;2023-04-03T00:22:53;8.63;;;3.83;;
59824;SDS011;45703;50.898;6.054;2023-04-03T00:25:19;8.35;;;3.60;;
59824;SDS011;45703;50.898;6.054;2023-04-03T00:27:44;6.95;;;3.30;;
59824;SDS011;45703;50.898;6.054;2023-04-03T00:30:11;7.75;;;3.88;;
59824;SDS011;45703;50.898;6.054;2023-04-03T00:32:39;7.40;;;3.65;;
59824;SDS011;45703;50.898;6.054;2023-04-03T00:35:05;7.53;;;3.50;;
59824;SDS011;45703;50.898;6.054;2023-04-03T00:37:31;7.30;;;3.97;;
59824;SDS011;45703;50.898;6.054;2023-04-03T00:39:56;8.23;;;4.15;;
59824;SDS011;45703;50.898;6.054;2023-04-03T00:42:22;7.80;;;3.50;;
59824;SDS011;45703;50.898;6.054;2023-04-03T00:47:14;7.15;;;3.78;;
59824;SDS011;45703;50.898;6.054;2023-04-03T00:49:42;7.93;;;3.55;;
59824;SDS011;45703;50.898;6.054;2023-04-03T00:52:14;7.72;;;3.78;;
59824;SDS011;45703;50.898;6.054;2023-04-03T00:54:42;7.63;;;3.97;;
59824;SDS011;45703;50.898;6.054;2023-04-03T00:57:11;9.38;;;4.30;;
59824;SDS011;45703;50.898;6.054;2023-04-03T00:59:41;7.68;;;3.88;;
59824;SDS011;45703;50.898;6.054;2023-04-03T01:02:09;7.63;;;3.60;;
59824;SDS011;45703;50.898;6.054;2023-04-03T01:04:36;8.52;;;4.43;;
59824;SDS011;45703;50.898;6.054;2023-04-03T01:07:05;7.75;;;4.25;;
59824;SDS011;45703;50.898;6.054;2023-04-03T01:09:33;8.50;;;4.10;;
59824;SDS011;45703;50.898;6.054;2023-04-03T01:14:47;8.80;;;4.63;;
59824;SDS011;45703;50.898;6.054;2023-04-03T01:17:29;9.38;;;4.20;;
59824;SDS011;45703;50.898;6.054;2023-04-03T01:22:56;7.70;;;4.13;;
59824;SDS011;45703;50.898;6.054;2023-04-03T01:25:25;8.25;;;4.18;;
59824;SDS011;45703;50.898;6.054;2023-04-03T01:27:51;8.18;;;4.18;;
59824;SDS011;45703;50.898;6.054;2023-04-03T01:30:18;8.52;;;4.20;;
59824;SDS011;45703;50.898;6.054;2023-04-03T01:32:45;8.85;;;4.35;;
59824;SDS011;45703;50.898;6.054;2023-04-03T01:35:10;7.95;;;4.20;;
59824;SDS011;45703;50.898;6.054;2023-04-03T01:37:35;8.85;;;4.68;;
59824;SDS011;45703;50.898;6.054;2023-04-03T01:40:01;8.45;;;4.50;;
59824;SDS011;45703;50.898;6.054;2023-04-03T01:42:28;8.85;;;4.35;;
59824;SDS011;45703;50.898;6.054;2023-04-03T01:44:54;9.20;;;4.75;;
59824;SDS011;45703;50.898;6.054;2023-04-03T01:47:20;8.48;;;4.32;;
59824;SDS011;45703;50.898;6.054;2023-04-03T01:49:46;9.15;;;4.30;;
59824;SDS011;45703;50.898;6.054;2023-04-03T01:52:11;10.18;;;5.20;;
59824;SDS011;45703;50.898;6.054;2023-04-03T01:54:37;11.27;;;4.65;;
59824;SDS011;45703;50.898;6.054;2023-04-03T01:57:02;8.15;;;4.70;;
59824;SDS011;45703;50.898;6.054;2023-04-03T01:59:27;8.35;;;3.97;;
59824;SDS011;45703;50.898;6.054;2023-04-03T02:01:53;9.35;;;4.53;;
59824;SDS011;45703;50.898;6.054;2023-04-03T02:04:18;7.68;;;3.92;;
59824;SDS011;45703;50.898;6.054;2023-04-03T02:06:44;8.30;;;4.35;;
59824;SDS011;45703;50.898;6.054;2023-04-03T02:09:09;7.28;;;4.00;;
59824;SDS011;45703;50.898;6.054;2023-04-03T02:11:34;10.98;;;4.38;;
59824;SDS011;45703;50.898;6.054;2023-04-03T02:14:00;7.35;;;3.90;;
59824;SDS011;45703;50.898;6.054;2023-04-03T02:16:26;8.35;;;3.63;;
59824;SDS011;45703;50.898;6.054;2023-04-03T02:18:51;7.65;;;3.75;;
59824;SDS011;45703;50.898;6.054;2023-04-03T02:21:16;9.25;;;4.03;;
59824;SDS011;45703;50.898;6.054;2023-04-03T02:23:42;7.68;;;3.63;;
59824;SDS011;45703;50.898;6.054;2023-04-03T02:26:09;7.50;;;3.45;;
59824;SDS011;45703;50.898;6.054;2023-04-03T02:28:36;9.55;;;4.40;;
59824;SDS011;45703;50.898;6.054;2023-04-03T02:31:02;8.27;;;3.72;;
59824;SDS011;45703;50.898;6.054;2023-04-03T02:33:28;7.00;;;3.50;;
59824;SDS011;45703;50.898;6.054;2023-04-03T02:35:56;8.40;;;3.65;;
59824;SDS011;45703;50.898;6.054;2023-04-03T02:38:23;8.55;;;4.18;;
59824;SDS011;45703;50.898;6.054;2023-04-03T02:40:49;10.65;;;3.88;;
59824;SDS011;45703;50.898;6.054;2023-04-03T02:43:14;8.27;;;3.67;;
59824;SDS011;45703;50.898;6.054;2023-04-03T02:45:40;8.95;;;4.47;;
59824;SDS011;45703;50.898;6.054;2023-04-03T02:48:05;8.45;;;3.90;;
59824;SDS011;45703;50.898;6.054;2023-04-03T02:50:31;8.32;;;3.83;;
59824;SDS011;45703;50.898;6.054;2023-04-03T02:52:56;9.10;;;4.22;;
59824;SDS011;45703;50.898;6.054;2023-04-03T02:55:22;8.90;;;4.35;;
59824;SDS011;45703;50.898;6.054;2023-04-03T02:57:47;8.90;;;4.40;;
59824;SDS011;45703;50.898;6.054;2023-04-03T03:00:13;9.32;;;4.65;;
59824;SDS011;45703;50.898;6.054;2023-04-03T03:02:39;8.65;;;4.63;;
59824;SDS011;45703;50.898;6.054;2023-04-03T03:05:05;9.27;;;4.65;;
59824;SDS011;45703;50.898;6.054;2023-04-03T03:07:32;11.43;;;5.13;;
59824;SDS011;45703;50.898;6.054;2023-04-03T03:09:57;9.73;;;4.90;;
59824;SDS011;45703;50.898;6.054;2023-04-03T03:12:23;8.82;;;4.93;;
59824;SDS011;45703;50.898;6.054;2023-04-03T03:14:49;8.73;;;4.45;;
59824;SDS011;45703;50.898;6.054;2023-04-03T03:17:15;8.80;;;4.50;;
59824;SDS011;45703;50.898;6.054;2023-04-03T03:19:41;8.48;;;4.88;;
59824;SDS011;45703;50.898;6.054;2023-04-03T03:22:07;8.32;;;4.72;;
59824;SDS011;45703;50.898;6.054;2023-04-03T03:24:33;10.15;;;5.32;;
59824;SDS011;45703;50.898;6.054;2023-04-03T03:26:58;10.20;;;4.97;;
59824;SDS011;45703;50.898;6.054;2023-04-03T03:29:23;9.80;;;4.90;;
59824;SDS011;45703;50.898;6.054;2023-04-03T03:31:49;10.07;;;5.05;;
59824;SDS011;45703;50.898;6.054;2023-04-03T03:34:14;8.85;;;4.97;;
59824;SDS011;45703;50.898;6.054;2023-04-03T03:36:40;11.70;;;5.47;;
59824;SDS011;45703;50.898;6.054;2023-04-03T03:39:06;8.95;;;5.50;;
59824;SDS011;45703;50.898;6.054;2023-04-03T03:41:31;8.73;;;5.43;;
59824;SDS011;45703;50.898;6.054;2023-04-03T03:43:57;11.13;;;5.82;;
59824;SDS011;45703;50.898;6.054;2023-04-03T03:46:22;10.35;;;5.78;;
59824;SDS011;45703;50.898;6.054;2023-04-03T03:48:48;11.48;;;6.40;;
59824;SDS011;45703;50.898;6.054;2023-04-03T03:51:31;10.57;;;6.63;;
59824;SDS011;45703;50.898;6.054;2023-04-03T03:53:57;10.40;;;6.07;;
59824;SDS011;45703;50.898;6.054;2023-04-03T03:56:22;10.50;;;5.97;;
59824;SDS011;45703;50.898;6.054;2023-04-03T03:58:48;12.68;;;6.70;;
59824;SDS011;45703;50.898;6.054;2023-04-03T04:01:14;12.10;;;6.55;;
59824;SDS011;45703;50.898;6.054;2023-04-03T04:03:40;13.18;;;7.38;;
59824;SDS011;45703;50.898;6.054;2023-04-03T04:06:06;12.77;;;6.60;;
59824;SDS011;45703;50.898;6.054;2023-04-03T04:08:31;11.25;;;7.10;;
59824;SDS011;45703;50.898;6.054;2023-04-03T04:10:56;11.93;;;6.30;;
59824;SDS011;45703;50.898;6.054;2023-04-03T04:13:22;11.63;;;6.75;;
59824;SDS011;45703;50.898;6.054;2023-04-03T04:15:48;11.50;;;7.03;;
59824;SDS011;45703;50.898;6.054;2023-04-03T04:18:13;11.13;;;6.80;;
59824;SDS011;45703;50.898;6.054;2023-04-03T04:20:39;11.35;;;6.97;;
59824;SDS011;45703;50.898;6.054;2023-04-03T04:23:05;10.93;;;6.55;;
59824;SDS011;45703;50.898;6.054;2023-04-03T04:25:30;11.02;;;6.30;;
59824;SDS011;45703;50.898;6.054;2023-04-03T04:27:56;12.70;;;7.53;;
59824;SDS011;45703;50.898;6.054;2023-04-03T04:30:21;10.73;;;6.13;;
59824;SDS011;45703;50.898;6.054;2023-04-03T04:32:47;11.43;;;6.35;;
59824;SDS011;45703;50.898;6.054;2023-04-03T04:35:12;13.68;;;7.47;;
59824;SDS011;45703;50.898;6.054;2023-04-03T04:37:37;11.50;;;6.93;;
59824;SDS011;45703;50.898;6.054;2023-04-03T04:40:03;11.55;;;6.35;;
59824;SDS011;45703;50.898;6.054;2023-04-03T04:42:29;10.70;;;6.50;;
59824;SDS011;45703;50.898;6.054;2023-04-03T04:44:54;12.68;;;6.78;;
59824;SDS011;45703;50.898;6.054;2023-04-03T04:47:19;11.07;;;6.70;;
59824;SDS011;45703;50.898;6.054;2023-04-03T04:49:45;11.23;;;7.00;;
59824;SDS011;45703;50.898;6.054;2023-04-03T04:52:12;10.20;;;6.32;;
59824;SDS011;45703;50.898;6.054;2023-04-03T04:54:37;10.52;;;6.38;;
59824;SDS011;45703;50.898;6.054;2023-04-03T04:57:03;10.13;;;6.15;;
59824;SDS011;45703;50.898;6.054;2023-04-03T04:59:28;12.02;;;6.53;;
59824;SDS011;45703;50.898;6.054;2023-04-03T05:01:54;10.35;;;6.38;;
59824;SDS011;45703;50.898;6.054;2023-04-03T05:04:19;11.82;;;6.70;;
59824;SDS011;45703;50.898;6.054;2023-04-03T05:06:45;10.40;;;6.28;;
59824;SDS011;45703;50.898;6.054;2023-04-03T05:09:10;11.68;;;6.85;;
59824;SDS011;45703;50.898;6.054;2023-04-03T05:11:36;10.65;;;6.65;;
59824;SDS011;45703;50.898;6.054;2023-04-03T05:14:01;10.05;;;6.53;;
59824;SDS011;45703;50.898;6.054;2023-04-03T05:16:27;13.55;;;7.00;;
59824;SDS011;45703;50.898;6.054;2023-04-03T05:18:52;12.80;;;7.00;;
59824;SDS011;45703;50.898;6.054;2023-04-03T05:21:18;10.85;;;6.72;;
59824;SDS011;45703;50.898;6.054;2023-04-03T05:23:43;11.82;;;6.85;;
59824;SDS011;45703;50.898;6.054;2023-04-03T05:26:09;11.13;;;7.18;;
59824;SDS011;45703;50.898;6.054;2023-04-03T05:28:34;10.65;;;6.75;;
59824;SDS011;45703;50.898;6.054;2023-04-03T05:31:00;11.35;;;6.72;;
59824;SDS011;45703;50.898;6.054;2023-04-03T05:33:25;11.10;;;6.82;;
59824;SDS011;45703;50.898;6.054;2023-04-03T05:35:52;11.75;;;6.80;;
59824;SDS011;45703;50.898;6.054;2023-04-03T05:38:18;12.20;;;7.35;;
59824;SDS011;45703;50.898;6.054;2023-04-03T05:40:43;14.55;;;7.38;;
59824;SDS011;45703;50.898;6.054;2023-04-03T05:43:09;12.35;;;7.50;;
59824;SDS011;45703;50.898;6.054;2023-04-03T05:45:34;11.68;;;6.82;;
59824;SDS011;45703;50.898;6.054;2023-04-03T05:48:00;13.20;;;7.93;;
59824;SDS011;45703;50.898;6.054;2023-04-03T05:50:25;11.77;;;7.82;;
59824;SDS011;45703;50.898;6.054;2023-04-03T05:52:51;11.50;;;6.75;;
59824;SDS011;45703;50.898;6.054;2023-04-03T05:55:19;13.43;;;6.97;;
59824;SDS011;45703;50.898;6.054;2023-04-03T05:57:44;11.48;;;7.43;;
59824;SDS011;45703;50.898;6.054;2023-04-03T06:00:13;11.75;;;7.22;;
59824;SDS011;45703;50.898;6.054;2023-04-03T06:02:42;11.10;;;6.80;;
59824;SDS011;45703;50.898;6.054;2023-04-03T06:05:08;13.60;;;7.35;;
59824;SDS011;45703;50.898;6.054;2023-04-03T06:07:36;12.32;;;7.38;;
59824;SDS011;45703;50.898;6.054;2023-04-03T06:10:02;15.15;;;8.32;;
59824;SDS011;45703;50.898;6.054;2023-04-03T06:12:28;12.35;;;7.45;;
59824;SDS011;45703;50.898;6.054;2023-04-03T06:14:54;16.20;;;7.97;;
59824;SDS011;45703;50.898;6.054;2023-04-03T06:17:20;11.30;;;7.00;;
59824;SDS011;45703;50.898;6.054;2023-04-03T06:19:46;11.48;;;6.82;;
59824;SDS011;45703;50.898;6.054;2023-04-03T06:22:11;11.55;;;6.90;;
59824;SDS011;45703;50.898;6.054;2023-04-03T06:24:37;11.52;;;6.70;;
59824;SDS011;45703;50.898;6.054;2023-04-03T06:27:03;13.55;;;7.50;;
59824;SDS011;45703;50.898;6.054;2023-04-03T06:29:29;12.05;;;6.90;;
59824;SDS011;45703;50.898;6.054;2023-04-03T06:31:55;13.05;;;7.53;;
59824;SDS011;45703;50.898;6.054;2023-04-03T06:34:20;11.65;;;7.15;;
59824;SDS011;45703;50.898;6.054;2023-04-03T06:36:46;11.82;;;6.57;;
59824;SDS011;45703;50.898;6.054;2023-04-03T06:39:16;12.43;;;7.25;;
59824;SDS011;45703;50.898;6.054;2023-04-03T06:41:43;11.90;;;6.85;;
59824;SDS011;45703;50.898;6.054;2023-04-03T06:44:09;12.77;;;6.75;;
59824;SDS011;45703;50.898;6.054;2023-04-03T06:46:36;11.20;;;6.75;;
59824;SDS011;45703;50.898;6.054;2023-04-03T06:49:03;12.98;;;6.32;;
59824;SDS011;45703;50.898;6.054;2023-04-03T06:51:29;11.20;;;6.68;;
59824;SDS011;45703;50.898;6.054;2023-04-03T06:53:56;10.15;;;5.57;;
59824;SDS011;45703;50.898;6.054;2023-04-03T06:56:23;9.60;;;5.50;;
59824;SDS011;45703;50.898;6.054;2023-04-03T06:58:50;11.15;;;6.13;;
59824;SDS011;45703;50.898;6.054;2023-04-03T07:01:17;10.82;;;6.63;;
59824;SDS011;45703;50.898;6.054;2023-04-03T07:03:44;10.00;;;5.75;;
59824;SDS011;45703;50.898;6.054;2023-04-03T07:06:10;10.10;;;5.43;;
59824;SDS011;45703;50.898;6.054;2023-04-03T07:08:37;10.45;;;5.63;;
59824;SDS011;45703;50.898;6.054;2023-04-03T07:11:03;10.75;;;5.20;;
59824;SDS011;45703;50.898;6.054;2023-04-03T07:13:29;10.93;;;5.60;;
59824;SDS011;45703;50.898;6.054;2023-04-03T07:15:55;12.20;;;5.35;;
59824;SDS011;45703;50.898;6.054;2023-04-03T07:18:20;12.32;;;5.25;;
59824;SDS011;45703;50.898;6.054;2023-04-03T07:20:46;10.15;;;4.75;;
59824;SDS011;45703;50.898;6.054;2023-04-03T07:23:11;10.02;;;5.03;;
59824;SDS011;45703;50.898;6.054;2023-04-03T07:25:42;10.52;;;5.05;;
59824;SDS011;45703;50.898;6.054;2023-04-03T07:28:11;11.90;;;5.25;;
59824;SDS011;45703;50.898;6.054;2023-04-03T07:30:46;10.93;;;5.38;;
59824;SDS011;45703;50.898;6.054;2023-04-03T07:33:14;11.70;;;5.18;;
59824;SDS011;45703;50.898;6.054;2023-04-03T07:35:41;8.65;;;4.45;;
59824;SDS011;45703;50.898;6.054;2023-04-03T07:38:07;13.07;;;4.95;;
59824;SDS011;45703;50.898;6.054;2023-04-03T07:40:33;9.38;;;4.20;;
59824;SDS011;45703;50.898;6.054;2023-04-03T07:42:58;11.80;;;4.75;;
59824;SDS011;45703;50.898;6.054;2023-04-03T07:45:24;9.32;;;4.75;;
59824;SDS011;45703;50.898;6.054;2023-04-03T07:47:50;9.43;;;4.03;;
59824;SDS011;45703;50.898;6.054;2023-04-03T07:50:16;8.43;;;4.53;;
59824;SDS011;45703;50.898;6.054;2023-04-03T07:52:42;10.55;;;4.18;;
59824;SDS011;45703;50.898;6.054;2023-04-03T07:55:08;9.88;;;4.28;;
59824;SDS011;45703;50.898;6.054;2023-04-03T07:57:33;12.05;;;4.40;;
59824;SDS011;45703;50.898;6.054;2023-04-03T07:59:59;8.25;;;3.40;;
59824;SDS011;45703;50.898;6.054;2023-04-03T08:02:24;9.38;;;4.22;;
59824;SDS011;45703;50.898;6.054;2023-04-03T08:04:50;8.80;;;3.90;;
59824;SDS011;45703;50.898;6.054;2023-04-03T08:07:15;7.60;;;3.42;;
59824;SDS011;45703;50.898;6.054;2023-04-03T08:09:41;8.57;;;3.55;;
59824;SDS011;45703;50.898;6.054;2023-04-03T08:12:07;8.98;;;3.90;;
59824;SDS011;45703;50.898;6.054;2023-04-03T08:14:32;8.20;;;3.70;;
59824;SDS011;45703;50.898;6.054;2023-04-03T08:16:59;8.38;;;3.50;;
59824;SDS011;45703;50.898;6.054;2023-04-03T08:19:25;10.63;;;3.60;;
59824;SDS011;45703;50.898;6.054;2023-04-03T08:21:51;7.75;;;3.50;;
59824;SDS011;45703;50.898;6.054;2023-04-03T08:24:17;9.40;;;3.53;;
59824;SDS011;45703;50.898;6.054;2023-04-03T08:26:43;8.50;;;3.00;;
59824;SDS011;45703;50.898;6.054;2023-04-03T08:29:08;8.48;;;3.03;;
59824;SDS011;45703;50.898;6.054;2023-04-03T08:31:34;8.90;;;3.35;;
59824;SDS011;45703;50.898;6.054;2023-04-03T08:33:59;9.82;;;3.05;;
59824;SDS011;45703;50.898;6.054;2023-04-03T08:36:26;8.02;;;3.58;;
59824;SDS011;45703;50.898;6.054;2023-04-03T08:38:53;8.77;;;3.55;;
59824;SDS011;45703;50.898;6.054;2023-04-03T08:41:33;9.73;;;3.40;;
59824;SDS011;45703;50.898;6.054;2023-04-03T08:44:22;9.45;;;3.55;;
59824;SDS011;45703;50.898;6.054;2023-04-03T08:47:27;9.40;;;3.30;;
59824;SDS011;45703;50.898;6.054;2023-04-03T08:50:02;6.72;;;3.20;;
59824;SDS011;45703;50.898;6.054;2023-04-03T08:52:52;8.27;;;3.00;;
59824;SDS011;45703;50.898;6.054;2023-04-03T08:55:23;8.55;;;3.58;;
59824;SDS011;45703;50.898;6.054;2023-04-03T08:58:01;8.80;;;3.10;;
59824;SDS011;45703;50.898;6.054;2023-04-03T09:00:48;9.80;;;3.20;;
59824;SDS011;45703;50.898;6.054;2023-04-03T09:03:18;8.77;;;2.80;;
59824;SDS011;45703;50.898;6.054;2023-04-03T09:08:36;8.70;;;3.35;;
59824;SDS011;45703;50.898;6.054;2023-04-03T09:13:55;7.63;;;3.00;;
59824;SDS011;45703;50.898;6.054;2023-04-03T09:22:38;7.43;;;2.58;;
59824;SDS011;45703;50.898;6.054;2023-04-03T09:25:05;7.78;;;2.55;;
59824;SDS011;45703;50.898;6.054;2023-04-03T09:27:38;7.40;;;2.50;;
59824;SDS011;45703;50.898;6.054;2023-04-03T09:30:03;7.43;;;2.63;;
59824;SDS011;45703;50.898;6.054;2023-04-03T09:32:30;6.53;;;2.35;;
59824;SDS011;45703;50.898;6.054;2023-04-03T09:35:15;7.97;;;2.38;;
59824;SDS011;45703;50.898;6.054;2023-04-03T09:37:49;10.15;;;2.40;;
59824;SDS011;45703;50.898;6.054;2023-04-03T09:42:51;6.90;;;2.17;;
59824;SDS011;45703;50.898;6.054;2023-04-03T09:45:29;7.60;;;2.30;;
59824;SDS011;45703;50.898;6.054;2023-04-03T09:50:37;8.05;;;2.38;;
59824;SDS011;45703;50.898;6.054;2023-04-03T09:53:05;7.55;;;2.45;;
59824;SDS011;45703;50.898;6.054;2023-04-03T09:55:33;6.45;;;2.10;;
59824;SDS011;45703;50.898;6.054;2023-04-03T09:59:05;6.70;;;2.58;;
59824;SDS011;45703;50.898;6.054;2023-04-03T10:00:59;6.60;;;2.00;;
59824;SDS011;45703;50.898;6.054;2023-04-03T10:06:00;6.28;;;2.08;;
59824;SDS011;45703;50.898;6.054;2023-04-03T10:08:31;7.82;;;2.13;;
59824;SDS011;45703;50.898;6.054;2023-04-03T10:11:17;7.57;;;2.40;;
59824;SDS011;45703;50.898;6.054;2023-04-03T10:16:29;12.10;;;2.20;;
59824;SDS011;45703;50.898;6.054;2023-04-03T10:24:32;7.20;;;1.67;;
59824;SDS011;45703;50.898;6.054;2023-04-03T10:27:11;5.72;;;1.70;;
59824;SDS011;45703;50.898;6.054;2023-04-03T10:35:18;6.07;;;1.45;;
59824;SDS011;45703;50.898;6.054;2023-04-03T10:38:19;5.40;;;1.83;;
59824;SDS011;45703;50.898;6.054;2023-04-03T10:40:59;5.03;;;1.55;;
59824;SDS011;45703;50.898;6.054;2023-04-03T10:43:49;5.68;;;1.67;;
59824;SDS011;45703;50.898;6.054;2023-04-03T10:46:38;5.35;;;1.30;;
59824;SDS011;45703;50.898;6.054;2023-04-03T10:49:22;5.65;;;1.52;;
59824;SDS011;45703;50.898;6.054;2023-04-03T10:54:25;5.05;;;1.40;;
59824;SDS011;45703;50.898;6.054;2023-04-03T10:57:03;6.00;;;1.73;;
59824;SDS011;45703;50.898;6.054;2023-04-03T10:59:50;5.68;;;1.33;;
59824;SDS011;45703;50.898;6.054;2023-04-03T11:02:33;5.70;;;1.40;;
59824;SDS011;45703;50.898;6.054;2023-04-03T11:05:13;5.47;;;1.40;;
59824;SDS011;45703;50.898;6.054;2023-04-03T11:07:45;5.05;;;1.42;;
59824;SDS011;45703;50.898;6.054;2023-04-03T11:10:24;4.32;;;1.05;;
59824;SDS011;45703;50.898;6.054;2023-04-03T11:13:02;4.72;;;1.33;;
59824;SDS011;45703;50.898;6.054;2023-04-03T11:15:32;5.47;;;1.38;;
59824;SDS011;45703;50.898;6.054;2023-04-03T11:18:00;5.97;;;1.42;;
59824;SDS011;45703;50.898;6.054;2023-04-03T11:20:29;5.50;;;1.30;;
59824;SDS011;45703;50.898;6.054;2023-04-03T11:23:03;4.57;;;1.50;;
59824;SDS011;45703;50.898;6.054;2023-04-03T11:25:40;5.38;;;1.52;;
59824;SDS011;45703;50.898;6.054;2023-04-03T11:28:14;6.35;;;1.40;;
59824;SDS011;45703;50.898;6.054;2023-04-03T11:33:20;5.50;;;1.60;;
59824;SDS011;45703;50.898;6.054;2023-04-03T11:35:48;5.57;;;1.90;;
59824;SDS011;45703;50.898;6.054;2023-04-03T11:38:19;5.13;;;1.38;;
59824;SDS011;45703;50.898;6.054;2023-04-03T11:40:49;5.47;;;1.38;;
59824;SDS011;45703;50.898;6.054;2023-04-03T11:43:23;5.10;;;1.40;;
59824;SDS011;45703;50.898;6.054;2023-04-03T11:53:46;5.38;;;1.50;;
59824;SDS011;45703;50.898;6.054;2023-04-03T12:01:49;5.43;;;1.30;;
59824;SDS011;45703;50.898;6.054;2023-04-03T12:04:15;6.63;;;1.50;;
59824;SDS011;45703;50.898;6.054;2023-04-03T12:06:49;4.88;;;1.52;;
59824;SDS011;45703;50.898;6.054;2023-04-03T12:09:33;6.35;;;1.52;;
59824;SDS011;45703;50.898;6.054;2023-04-03T12:12:32;4.75;;;1.25;;
59824;SDS011;45703;50.898;6.054;2023-04-03T12:18:31;7.85;;;1.83;;
59824;SDS011;45703;50.898;6.054;2023-04-03T12:23:58;7.13;;;2.10;;
59824;SDS011;45703;50.898;6.054;2023-04-03T12:26:44;10.32;;;2.20;;
59824;SDS011;45703;50.898;6.054;2023-04-03T12:29:25;11.02;;;2.22;;
59824;SDS011;45703;50.898;6.054;2023-04-03T12:37:03;9.60;;;2.33;;
59824;SDS011;45703;50.898;6.054;2023-04-03T12:47:27;5.70;;;1.30;;
59824;SDS011;45703;50.898;6.054;2023-04-03T12:50:02;4.65;;;1.15;;
59824;SDS011;45703;50.898;6.054;2023-04-03T12:52:31;5.85;;;1.42;;
59824;SDS011;45703;50.898;6.054;2023-04-03T12:55:00;5.40;;;1.40;;
59824;SDS011;45703;50.898;6.054;2023-04-03T12:57:29;6.15;;;1.35;;
59824;SDS011;45703;50.898;6.054;2023-04-03T12:59:55;5.18;;;1.30;;
59824;SDS011;45703;50.898;6.054;2023-04-03T13:05:10;6.07;;;1.70;;
59824;SDS011;45703;50.898;6.054;2023-04-03T13:07:42;26.60;;;6.72;;
59824;SDS011;45703;50.898;6.054;2023-04-03T13:15:24;16.73;;;4.13;;
59824;SDS011;45703;50.898;6.054;2023-04-03T13:17:54;8.55;;;2.83;;
59824;SDS011;45703;50.898;6.054;2023-04-03T13:22:58;8.20;;;1.85;;
59824;SDS011;45703;50.898;6.054;2023-04-03T13:25:28;8.77;;;2.25;;
59824;SDS011;45703;50.898;6.054;2023-04-03T13:27:56;7.95;;;1.73;;
59824;SDS011;45703;50.898;6.054;2023-04-03T13:32:59;9.43;;;2.30;;
59824;SDS011;45703;50.898;6.054;2023-04-03T13:35:29;8.75;;;1.90;;
59824;SDS011;45703;50.898;6.054;2023-04-03T13:38:02;6.40;;;1.50;;
59824;SDS011;45703;50.898;6.054;2023-04-03T13:40:30;6.90;;;1.42;;
59824;SDS011;45703;50.898;6.054;2023-04-03T13:43:00;5.55;;;1.50;;
59824;SDS011;45703;50.898;6.054;2023-04-03T13:48:35;6.95;;;1.30;;
59824;SDS011;45703;50.898;6.054;2023-04-03T13:53:57;5.03;;;1.52;;
59824;SDS011;45703;50.898;6.054;2023-04-03T13:56:37;6.13;;;1.58;;
59824;SDS011;45703;50.898;6.054;2023-04-03T14:01:46;6.03;;;1.55;;
59824;SDS011;45703;50.898;6.054;2023-04-03T14:04:19;3.42;;;0.98;;
59824;SDS011;45703;50.898;6.054;2023-04-03T14:06:50;5.03;;;1.40;;
59824;SDS011;45703;50.898;6.054;2023-04-03T14:09:17;3.55;;;1.02;;
59824;SDS011;45703;50.898;6.054;2023-04-03T14:11:43;3.90;;;1.10;;
59824;SDS011;45703;50.898;6.054;2023-04-03T14:14:20;4.75;;;1.13;;
59824;SDS011;45703;50.898;6.054;2023-04-03T14:16:50;4.72;;;1.40;;
59824;SDS011;45703;50.898;6.054;2023-04-03T14:19:22;4.28;;;1.45;;
59824;SDS011;45703;50.898;6.054;2023-04-03T14:21:50;6.85;;;1.30;;
59824;SDS011;45703;50.898;6.054;2023-04-03T14:24:17;3.75;;;1.00;;
59824;SDS011;45703;50.898;6.054;2023-04-03T14:26:44;4.75;;;1.58;;
59824;SDS011;45703;50.898;6.054;2023-04-03T14:29:11;4.72;;;1.00;;
59824;SDS011;45703;50.898;6.054;2023-04-03T14:31:37;4.82;;;1.10;;
59824;SDS011;45703;50.898;6.054;2023-04-03T14:34:03;4.40;;;1.08;;
59824;SDS011;45703;50.898;6.054;2023-04-03T14:36:29;4.72;;;1.20;;
59824;SDS011;45703;50.898;6.054;2023-04-03T14:38:55;2.88;;;0.90;;
59824;SDS011;45703;50.898;6.054;2023-04-03T14:41:22;4.10;;;0.90;;
59824;SDS011;45703;50.898;6.054;2023-04-03T14:43:49;4.53;;;0.88;;
59824;SDS011;45703;50.898;6.054;2023-04-03T14:48:43;4.65;;;1.00;;
59824;SDS011;45703;50.898;6.054;2023-04-03T14:51:13;4.45;;;1.10;;
59824;SDS011;45703;50.898;6.054;2023-04-03T14:53:41;9.18;;;1.40;;
59824;SDS011;45703;50.898;6.054;2023-04-03T14:56:16;10.13;;;1.30;;
59824;SDS011;45703;50.898;6.054;2023-04-03T14:58:44;7.47;;;1.23;;
59824;SDS011;45703;50.898;6.054;2023-04-03T15:01:13;4.43;;;1.05;;
59824;SDS011;45703;50.898;6.054;2023-04-03T15:03:39;5.57;;;1.00;;
59824;SDS011;45703;50.898;6.054;2023-04-03T15:06:04;4.53;;;0.95;;
59824;SDS011;45703;50.898;6.054;2023-04-03T15:08:30;4.35;;;1.10;;
59824;SDS011;45703;50.898;6.054;2023-04-03T15:10:56;5.45;;;1.20;;
59824;SDS011;45703;50.898;6.054;2023-04-03T15:13:22;4.38;;;1.00;;
59824;SDS011;45703;50.898;6.054;2023-04-03T15:15:49;5.22;;;1.15;;
59824;SDS011;45703;50.898;6.054;2023-04-03T15:18:17;6.60;;;1.27;;
59824;SDS011;45703;50.898;6.054;2023-04-03T15:20:45;5.40;;;1.17;;
59824;SDS011;45703;50.898;6.054;2023-04-03T15:23:12;3.60;;;0.90;;
59824;SDS011;45703;50.898;6.054;2023-04-03T15:25:40;4.03;;;1.08;;
59824;SDS011;45703;50.898;6.054;2023-04-03T15:28:18;4.55;;;1.05;;
59824;SDS011;45703;50.898;6.054;2023-04-03T15:30:48;5.80;;;1.10;;
59824;SDS011;45703;50.898;6.054;2023-04-03T15:33:13;4.03;;;1.02;;
59824;SDS011;45703;50.898;6.054;2023-04-03T15:35:40;3.92;;;0.93;;
59824;SDS011;45703;50.898;6.054;2023-04-03T15:38:06;3.55;;;1.00;;
59824;SDS011;45703;50.898;6.054;2023-04-03T15:40:31;3.78;;;0.90;;
59824;SDS011;45703;50.898;6.054;2023-04-03T15:42:57;4.78;;;1.10;;
59824;SDS011;45703;50.898;6.054;2023-04-03T15:45:22;3.58;;;0.90;;
59824;SDS011;45703;50.898;6.054;2023-04-03T15:47:48;5.20;;;1.20;;
59824;SDS011;45703;50.898;6.054;2023-04-03T15:50:14;5.40;;;1.20;;
59824;SDS011;45703;50.898;6.054;2023-04-03T15:52:39;4.35;;;1.30;;
59824;SDS011;45703;50.898;6.054;2023-04-03T15:55:05;4.32;;;1.00;;
59824;SDS011;45703;50.898;6.054;2023-04-03T15:57:31;4.45;;;1.23;;
59824;SDS011;45703;50.898;6.054;2023-04-03T15:59:56;5.72;;;1.38;;
59824;SDS011;45703;50.898;6.054;2023-04-03T16:02:22;7.22;;;1.48;;
59824;SDS011;45703;50.898;6.054;2023-04-03T16:04:47;5.10;;;1.60;;
59824;SDS011;45703;50.898;6.054;2023-04-03T16:07:13;5.80;;;1.40;;
59824;SDS011;45703;50.898;6.054;2023-04-03T16:09:39;5.30;;;1.52;;
59824;SDS011;45703;50.898;6.054;2023-04-03T16:12:05;5.80;;;1.25;;
59824;SDS011;45703;50.898;6.054;2023-04-03T16:14:30;5.15;;;1.23;;
59824;SDS011;45703;50.898;6.054;2023-04-03T16:16:56;7.13;;;1.48;;
59824;SDS011;45703;50.898;6.054;2023-04-03T16:19:22;6.95;;;1.40;;
59824;SDS011;45703;50.898;6.054;2023-04-03T16:21:48;6.10;;;1.58;;
59824;SDS011;45703;50.898;6.054;2023-04-03T16:24:14;5.72;;;1.50;;
59824;SDS011;45703;50.898;6.054;2023-04-03T16:26:39;8.38;;;1.60;;
59824;SDS011;45703;50.898;6.054;2023-04-03T16:29:05;6.78;;;1.60;;
59824;SDS011;45703;50.898;6.054;2023-04-03T16:31:30;4.13;;;1.00;;
59824;SDS011;45703;50.898;6.054;2023-04-03T16:33:57;5.03;;;1.10;;